createdAt,value
2018-11-14T00:03:51.407Z,100.00
2018-11-14T00:08:54.756Z,100.00
2018-11-14T00:13:58.265Z,100.00
2018-11-14T00:19:01.448Z,100.00
2018-11-14T00:24:04.892Z,100.00
2018-11-14T00:29:07.978Z,100.00
2018-11-14T00:34:11.323Z,100.00
2018-11-14T00:39:14.480Z,100.00
2018-11-14T00:44:17.589Z,100.00
2018-11-14T00:49:20.834Z,100.00
2018-11-14T00:54:24.024Z,100.00
2018-11-14T00:59:29.266Z,100.00
2018-11-14T01:04:32.554Z,100.00
2018-11-14T01:09:35.703Z,100.00
2018-11-14T01:14:38.858Z,100.00
2018-11-14T01:19:41.985Z,100.00
2018-11-14T01:24:45.161Z,100.00
2018-11-14T01:29:48.303Z,100.00
2018-11-14T01:34:51.467Z,100.00
2018-11-14T01:39:54.758Z,100.00
2018-11-14T01:45:04.080Z,100.00
2018-11-14T01:50:08.615Z,100.00
2018-11-14T01:55:12.009Z,100.00
2018-11-14T02:00:16.253Z,100.00
2018-11-14T02:05:19.440Z,100.00
2018-11-14T02:10:22.641Z,100.00
2018-11-14T02:15:25.852Z,100.00
2018-11-14T02:20:29.083Z,100.00
2018-11-14T02:25:32.836Z,100.00
2018-11-14T02:30:36.184Z,100.00
2018-11-14T02:35:39.339Z,100.00
2018-11-14T02:40:42.553Z,100.00
2018-11-14T02:45:45.657Z,100.00
2018-11-14T02:50:58.726Z,100.00
2018-11-14T02:56:06.411Z,100.00
2018-11-14T03:01:09.580Z,100.00
2018-11-14T03:06:12.765Z,100.00
2018-11-14T03:11:15.902Z,100.00
2018-11-14T03:16:19.061Z,100.00
2018-11-14T03:21:22.305Z,100.00
2018-11-14T03:26:25.502Z,100.00
2018-11-14T03:31:28.734Z,100.00
2018-11-14T03:36:32.029Z,100.00
2018-11-14T03:41:35.507Z,100.00
2018-11-14T03:46:38.748Z,100.00
2018-11-14T03:51:41.979Z,100.00
2018-11-14T03:56:45.317Z,100.00
2018-11-14T04:01:48.526Z,100.00
2018-11-14T04:06:51.783Z,100.00
2018-11-14T04:11:55.164Z,100.00
2018-11-14T04:16:58.347Z,100.00
2018-11-14T04:22:01.641Z,100.00
2018-11-14T04:27:04.869Z,100.00
2018-11-14T04:32:08.066Z,100.00
2018-11-14T04:37:11.225Z,100.00
2018-11-14T04:42:14.597Z,100.00
2018-11-14T04:47:17.763Z,100.00
2018-11-14T04:52:20.899Z,100.00
2018-11-14T04:57:26.057Z,100.00
2018-11-14T05:02:29.466Z,100.00
2018-11-14T05:07:32.822Z,100.00
2018-11-14T05:12:36.175Z,100.00
2018-11-14T05:17:39.380Z,100.00
2018-11-14T05:22:42.564Z,100.00
2018-11-14T05:27:45.890Z,100.00
2018-11-14T05:32:49.030Z,100.00
2018-11-14T05:37:52.373Z,100.00
2018-11-14T05:42:55.845Z,100.00
2018-11-14T05:47:59.187Z,100.00
2018-11-14T05:53:02.344Z,100.00
2018-11-14T05:58:05.707Z,100.00
2018-11-14T06:03:11.241Z,100.00
2018-11-14T06:08:14.420Z,100.00
2018-11-14T06:13:17.729Z,100.00
2018-11-14T06:18:20.856Z,100.00
2018-11-14T06:23:24.292Z,100.00
2018-11-14T06:28:27.581Z,100.00
2018-11-14T06:33:31.057Z,100.00
2018-11-14T06:38:34.380Z,100.00
2018-11-14T06:43:37.531Z,100.00
2018-11-14T06:48:40.825Z,100.00
2018-11-14T06:53:44.612Z,100.00
2018-11-14T06:58:47.814Z,100.00
2018-11-14T07:03:51.705Z,100.00
2018-11-14T07:08:55.085Z,100.00
2018-11-14T07:13:59.021Z,100.00
2018-11-14T07:19:02.312Z,100.00
2018-11-14T07:24:05.473Z,100.00
2018-11-14T07:29:09.718Z,100.00
2018-11-14T07:34:13.837Z,100.00
2018-11-14T07:39:17.444Z,100.00
2018-11-14T07:44:20.664Z,100.00
2018-11-14T07:49:23.843Z,100.00
2018-11-14T07:54:27.846Z,100.00
2018-11-14T07:59:31.061Z,100.00
2018-11-14T08:04:36.465Z,100.00
2018-11-14T08:09:43.095Z,100.00
2018-11-14T08:14:46.371Z,100.00
2018-11-14T08:19:49.477Z,100.00
2018-11-14T08:24:52.679Z,100.00
2018-11-14T08:29:56.170Z,100.00
2018-11-14T08:35:20.593Z,100.00
2018-11-14T08:40:25.744Z,100.00
2018-11-14T08:45:29.140Z,100.00
2018-11-14T08:50:32.367Z,100.00
2018-11-14T08:55:35.734Z,100.00
2018-11-14T09:00:38.963Z,100.00
2018-11-14T09:05:42.126Z,100.00
2018-11-14T09:10:45.392Z,100.00
2018-11-14T09:15:48.571Z,100.00
2018-11-14T09:20:52.661Z,100.00
2018-11-14T09:25:56.090Z,100.00
2018-11-14T09:31:00.580Z,100.00
2018-11-14T09:36:03.886Z,100.00
2018-11-14T09:41:07.181Z,100.00
2018-11-14T09:46:10.378Z,100.00
2018-11-14T09:51:13.507Z,100.00
2018-11-14T09:56:16.850Z,96.56
2018-11-14T10:01:20.527Z,93.77
2018-11-14T10:06:25.812Z,89.23
2018-11-14T10:11:29.001Z,81.08
2018-11-14T10:16:32.201Z,78.07
2018-11-14T10:21:36.258Z,71.12
2018-11-14T10:26:41.070Z,69.22
2018-11-14T10:31:44.314Z,70.03
2018-11-14T10:36:47.500Z,64.74
2018-11-14T10:41:52.460Z,66.01
2018-11-14T10:46:56.456Z,65.84
2018-11-14T10:51:59.742Z,64.22
2018-11-14T10:57:03.006Z,66.09
2018-11-14T11:02:06.626Z,66.78
2018-11-14T11:07:09.808Z,69.54
2018-11-14T11:12:13.023Z,70.74
2018-11-14T11:17:16.324Z,73.90
2018-11-14T11:22:19.489Z,75.75
2018-11-14T11:27:22.602Z,79.43
2018-11-14T11:32:26.042Z,78.71
2018-11-14T11:37:29.243Z,80.09
2018-11-14T11:42:32.605Z,81.28
2018-11-14T11:47:35.802Z,80.28
2018-11-14T11:52:39.072Z,81.02
2018-11-14T11:57:42.296Z,78.79
2018-11-14T12:02:45.484Z,79.23
2018-11-14T12:07:49.405Z,75.63
2018-11-14T12:12:52.660Z,69.68
2018-11-14T12:17:55.844Z,72.64
2018-11-14T12:22:59.097Z,73.35
2018-11-14T12:28:02.571Z,69.60
2018-11-14T12:33:05.835Z,71.39
2018-11-14T12:38:09.058Z,71.29
2018-11-14T12:43:12.330Z,71.05
2018-11-14T12:48:15.601Z,72.04
2018-11-14T12:53:18.766Z,73.60
2018-11-14T12:58:21.959Z,74.00
2018-11-14T13:03:25.164Z,71.45
2018-11-14T13:08:28.613Z,70.77
2018-11-14T13:13:31.886Z,67.92
2018-11-14T13:18:35.302Z,70.19
2018-11-14T13:23:38.552Z,69.47
2018-11-14T13:28:41.862Z,71.15
2018-11-14T13:33:45.098Z,73.62
2018-11-14T13:38:48.321Z,73.19
2018-11-14T13:43:51.509Z,74.42
2018-11-14T13:48:55.186Z,73.03
2018-11-14T13:53:58.396Z,72.62
2018-11-14T13:59:01.957Z,72.44
2018-11-14T14:04:05.171Z,73.58
2018-11-14T14:09:09.403Z,74.66
2018-11-14T14:14:12.618Z,75.12
2018-11-14T14:19:15.882Z,77.25
2018-11-14T14:24:19.100Z,78.03
2018-11-14T14:29:22.306Z,80.11
2018-11-14T14:34:25.554Z,81.72
2018-11-14T14:39:28.795Z,83.82
2018-11-14T14:44:32.019Z,85.68
2018-11-14T14:49:36.310Z,87.41
2018-11-14T14:54:40.308Z,89.31
2018-11-14T14:59:44.088Z,92.04
2018-11-14T15:04:48.110Z,93.76
2018-11-14T15:09:51.337Z,96.00
2018-11-14T15:14:54.600Z,98.61
2018-11-14T15:19:58.041Z,99.61
2018-11-14T15:25:01.256Z,100.00
2018-11-14T15:30:05.908Z,100.00
2018-11-14T15:35:09.100Z,100.00
2018-11-14T15:40:12.601Z,100.00
2018-11-14T15:45:16.005Z,100.00
2018-11-14T15:50:19.513Z,100.00
2018-11-14T15:55:23.209Z,100.00
2018-11-14T16:00:26.558Z,100.00
2018-11-14T16:05:29.959Z,100.00
2018-11-14T16:10:33.125Z,100.00
2018-11-14T16:15:37.215Z,100.00
2018-11-14T16:20:40.670Z,100.00
2018-11-14T16:25:44.447Z,100.00
2018-11-14T16:30:47.766Z,100.00
2018-11-14T16:35:51.070Z,100.00
2018-11-14T16:40:54.348Z,100.00
2018-11-14T16:45:59.748Z,100.00
2018-11-14T16:51:03.024Z,100.00
2018-11-14T16:56:06.175Z,100.00
2018-11-14T17:01:10.056Z,100.00
2018-11-14T17:06:13.352Z,100.00
2018-11-14T17:11:17.215Z,100.00
2018-11-14T17:16:20.439Z,100.00
2018-11-14T17:21:23.765Z,100.00
2018-11-14T17:26:27.036Z,100.00
2018-11-14T17:31:30.237Z,100.00
2018-11-14T17:36:33.429Z,100.00
2018-11-14T17:41:36.639Z,100.00
2018-11-14T17:46:40.183Z,100.00
2018-11-14T17:51:43.661Z,100.00
2018-11-14T17:56:47.103Z,100.00
2018-11-14T18:01:50.474Z,100.00
2018-11-14T18:06:54.048Z,100.00
2018-11-14T18:11:58.935Z,100.00
2018-11-14T18:17:03.114Z,100.00
2018-11-14T18:22:06.561Z,100.00
2018-11-14T18:27:10.194Z,100.00
2018-11-14T18:32:13.590Z,100.00
2018-11-14T18:37:17.754Z,100.00
2018-11-14T18:42:23.035Z,100.00
2018-11-14T18:47:26.225Z,100.00
2018-11-14T18:52:29.428Z,100.00
2018-11-14T18:57:32.666Z,100.00
2018-11-14T19:02:38.332Z,100.00
2018-11-14T19:07:50.753Z,100.00
2018-11-14T19:12:59.234Z,100.00
2018-11-14T19:18:08.799Z,100.00
2018-11-14T19:23:12.594Z,100.00
2018-11-14T19:28:16.455Z,100.00
2018-11-14T19:33:20.563Z,100.00
2018-11-14T19:38:23.835Z,100.00
2018-11-14T19:43:32.870Z,100.00
2018-11-14T19:48:36.327Z,100.00
2018-11-14T19:53:40.461Z,100.00
2018-11-14T19:58:43.584Z,100.00
2018-11-14T20:03:46.916Z,100.00
2018-11-14T20:08:50.191Z,100.00
2018-11-14T20:13:54.436Z,100.00
2018-11-14T20:18:58.973Z,100.00
2018-11-14T20:24:07.496Z,100.00
2018-11-14T20:29:11.820Z,100.00
2018-11-14T20:34:15.492Z,100.00
2018-11-14T20:39:20.183Z,100.00
2018-11-14T20:44:25.881Z,100.00
2018-11-14T20:49:29.092Z,100.00
2018-11-14T20:54:32.448Z,100.00
2018-11-14T20:59:36.265Z,100.00
2018-11-14T21:04:39.538Z,100.00
2018-11-14T21:09:44.177Z,100.00
2018-11-14T21:14:48.108Z,100.00
2018-11-14T21:19:52.115Z,100.00
2018-11-14T21:24:56.058Z,100.00
2018-11-14T21:29:59.405Z,100.00
2018-11-14T21:35:04.232Z,100.00
2018-11-14T21:40:10.821Z,100.00
2018-11-14T21:45:16.322Z,100.00
2018-11-14T21:50:21.503Z,100.00
2018-11-14T21:55:26.627Z,100.00
2018-11-14T22:00:31.903Z,100.00
2018-11-14T22:05:37.800Z,100.00
2018-11-14T22:10:43.076Z,100.00
2018-11-14T22:15:49.577Z,100.00
2018-11-14T22:20:53.551Z,100.00
2018-11-14T22:25:56.835Z,100.00
2018-11-14T22:31:00.025Z,100.00
2018-11-14T22:36:03.450Z,100.00
2018-11-14T22:41:06.684Z,100.00
2018-11-14T22:46:10.288Z,100.00
2018-11-14T22:51:13.657Z,100.00
2018-11-14T22:56:16.962Z,100.00
2018-11-14T23:01:20.509Z,100.00
2018-11-14T23:06:23.944Z,100.00
2018-11-14T23:11:27.143Z,100.00
2018-11-14T23:16:30.322Z,100.00
2018-11-14T23:21:33.465Z,100.00
2018-11-14T23:26:36.725Z,100.00
2018-11-14T23:31:39.930Z,100.00
2018-11-14T23:36:43.090Z,100.00
2018-11-14T23:41:46.314Z,100.00
2018-11-14T23:46:49.609Z,100.00
2018-11-14T23:51:52.834Z,100.00
2018-11-14T23:56:56.000Z,100.00
